sensor_id;sensor_type;location;lat;lon;timestamp;P1;durP1;ratioP1;P2;durP2;ratioP2
59846;SDS011;45728;48.788;2.302;2024-01-15T00:00:24;32.15;;;12.35;;
59846;SDS011;45728;48.788;2.302;2024-01-15T00:02:50;33.97;;;13.27;;
59846;SDS011;45728;48.788;2.302;2024-01-15T00:05:16;31.45;;;13.50;;
59846;SDS011;45728;48.788;2.302;2024-01-15T00:07:42;32.78;;;14.20;;
59846;SDS011;45728;48.788;2.302;2024-01-15T00:10:08;30.45;;;13.05;;
59846;SDS011;45728;48.788;2.302;2024-01-15T00:12:34;34.95;;;14.70;;
59846;SDS011;45728;48.788;2.302;2024-01-15T00:15:00;29.30;;;13.73;;
59846;SDS011;45728;48.788;2.302;2024-01-15T00:17:26;31.08;;;13.43;;
59846;SDS011;45728;48.788;2.302;2024-01-15T00:19:52;33.13;;;13.82;;
59846;SDS011;45728;48.788;2.302;2024-01-15T00:22:18;33.10;;;12.80;;
59846;SDS011;45728;48.788;2.302;2024-01-15T00:24:45;34.75;;;14.25;;
59846;SDS011;45728;48.788;2.302;2024-01-15T00:27:11;29.40;;;12.43;;
59846;SDS011;45728;48.788;2.302;2024-01-15T00:29:37;30.65;;;12.50;;
59846;SDS011;45728;48.788;2.302;2024-01-15T00:32:03;30.92;;;13.02;;
59846;SDS011;45728;48.788;2.302;2024-01-15T00:34:29;28.52;;;11.45;;
59846;SDS011;45728;48.788;2.302;2024-01-15T00:36:55;26.95;;;12.10;;
59846;SDS011;45728;48.788;2.302;2024-01-15T00:39:21;28.17;;;12.20;;
59846;SDS011;45728;48.788;2.302;2024-01-15T00:41:47;30.50;;;12.65;;
59846;SDS011;45728;48.788;2.302;2024-01-15T00:44:14;26.02;;;12.50;;
59846;SDS011;45728;48.788;2.302;2024-01-15T00:46:46;29.38;;;12.60;;
59846;SDS011;45728;48.788;2.302;2024-01-15T00:49:12;27.65;;;12.32;;
59846;SDS011;45728;48.788;2.302;2024-01-15T00:51:39;35.40;;;12.57;;
59846;SDS011;45728;48.788;2.302;2024-01-15T00:54:05;31.40;;;12.18;;
59846;SDS011;45728;48.788;2.302;2024-01-15T00:56:31;31.17;;;13.07;;
59846;SDS011;45728;48.788;2.302;2024-01-15T00:58:58;29.13;;;12.38;;
59846;SDS011;45728;48.788;2.302;2024-01-15T01:01:24;27.52;;;11.93;;
59846;SDS011;45728;48.788;2.302;2024-01-15T01:03:50;28.25;;;11.18;;
59846;SDS011;45728;48.788;2.302;2024-01-15T01:06:16;25.33;;;11.35;;
59846;SDS011;45728;48.788;2.302;2024-01-15T01:08:42;28.30;;;12.20;;
59846;SDS011;45728;48.788;2.302;2024-01-15T01:11:12;29.42;;;12.38;;
59846;SDS011;45728;48.788;2.302;2024-01-15T01:13:38;35.83;;;13.57;;
59846;SDS011;45728;48.788;2.302;2024-01-15T01:16:05;31.40;;;12.60;;
59846;SDS011;45728;48.788;2.302;2024-01-15T01:18:31;34.33;;;14.00;;
59846;SDS011;45728;48.788;2.302;2024-01-15T01:20:57;25.77;;;10.75;;
59846;SDS011;45728;48.788;2.302;2024-01-15T01:23:23;27.17;;;11.20;;
59846;SDS011;45728;48.788;2.302;2024-01-15T01:25:49;32.47;;;12.13;;
59846;SDS011;45728;48.788;2.302;2024-01-15T01:28:15;31.00;;;12.88;;
59846;SDS011;45728;48.788;2.302;2024-01-15T01:30:41;30.17;;;12.68;;
59846;SDS011;45728;48.788;2.302;2024-01-15T01:33:07;28.90;;;12.18;;
59846;SDS011;45728;48.788;2.302;2024-01-15T01:35:33;24.77;;;11.27;;
59846;SDS011;45728;48.788;2.302;2024-01-15T01:37:59;25.38;;;11.50;;
59846;SDS011;45728;48.788;2.302;2024-01-15T01:40:25;32.33;;;12.70;;
59846;SDS011;45728;48.788;2.302;2024-01-15T01:42:51;27.08;;;12.25;;
59846;SDS011;45728;48.788;2.302;2024-01-15T01:45:17;27.92;;;12.55;;
59846;SDS011;45728;48.788;2.302;2024-01-15T01:47:43;29.40;;;12.50;;
59846;SDS011;45728;48.788;2.302;2024-01-15T01:50:09;31.30;;;12.25;;
59846;SDS011;45728;48.788;2.302;2024-01-15T01:52:36;28.77;;;12.50;;
59846;SDS011;45728;48.788;2.302;2024-01-15T01:55:02;27.00;;;12.05;;
59846;SDS011;45728;48.788;2.302;2024-01-15T01:57:30;23.80;;;10.40;;
59846;SDS011;45728;48.788;2.302;2024-01-15T01:59:58;31.27;;;12.35;;
59846;SDS011;45728;48.788;2.302;2024-01-15T02:02:24;27.63;;;11.52;;
59846;SDS011;45728;48.788;2.302;2024-01-15T02:04:51;26.88;;;11.60;;
59846;SDS011;45728;48.788;2.302;2024-01-15T02:07:17;28.92;;;11.63;;
59846;SDS011;45728;48.788;2.302;2024-01-15T02:09:44;28.20;;;12.20;;
59846;SDS011;45728;48.788;2.302;2024-01-15T02:12:10;27.40;;;11.52;;
59846;SDS011;45728;48.788;2.302;2024-01-15T02:14:36;24.60;;;11.00;;
59846;SDS011;45728;48.788;2.302;2024-01-15T02:17:03;27.50;;;12.00;;
59846;SDS011;45728;48.788;2.302;2024-01-15T02:19:29;28.63;;;12.52;;
59846;SDS011;45728;48.788;2.302;2024-01-15T02:21:55;26.48;;;11.45;;
59846;SDS011;45728;48.788;2.302;2024-01-15T02:24:21;29.98;;;11.43;;
59846;SDS011;45728;48.788;2.302;2024-01-15T02:26:47;26.45;;;10.77;;
59846;SDS011;45728;48.788;2.302;2024-01-15T02:29:14;26.23;;;12.25;;
59846;SDS011;45728;48.788;2.302;2024-01-15T02:31:41;30.13;;;12.77;;
59846;SDS011;45728;48.788;2.302;2024-01-15T02:34:07;26.63;;;11.68;;
59846;SDS011;45728;48.788;2.302;2024-01-15T02:36:33;31.23;;;13.32;;
59846;SDS011;45728;48.788;2.302;2024-01-15T02:38:59;28.75;;;12.07;;
59846;SDS011;45728;48.788;2.302;2024-01-15T02:41:25;27.42;;;12.93;;
59846;SDS011;45728;48.788;2.302;2024-01-15T02:43:51;24.88;;;11.05;;
59846;SDS011;45728;48.788;2.302;2024-01-15T02:46:18;28.83;;;11.88;;
59846;SDS011;45728;48.788;2.302;2024-01-15T02:48:44;27.20;;;12.45;;
59846;SDS011;45728;48.788;2.302;2024-01-15T02:51:10;31.55;;;12.45;;
59846;SDS011;45728;48.788;2.302;2024-01-15T02:53:36;28.88;;;11.55;;
59846;SDS011;45728;48.788;2.302;2024-01-15T02:56:04;31.20;;;11.90;;
59846;SDS011;45728;48.788;2.302;2024-01-15T02:58:32;26.15;;;11.43;;
59846;SDS011;45728;48.788;2.302;2024-01-15T03:00:58;29.08;;;12.70;;
59846;SDS011;45728;48.788;2.302;2024-01-15T03:03:25;26.20;;;12.60;;
59846;SDS011;45728;48.788;2.302;2024-01-15T03:05:51;25.58;;;11.20;;
59846;SDS011;45728;48.788;2.302;2024-01-15T03:08:17;21.90;;;11.43;;
59846;SDS011;45728;48.788;2.302;2024-01-15T03:10:43;25.95;;;11.23;;
59846;SDS011;45728;48.788;2.302;2024-01-15T03:13:09;23.85;;;11.23;;
59846;SDS011;45728;48.788;2.302;2024-01-15T03:15:35;24.60;;;11.15;;
59846;SDS011;45728;48.788;2.302;2024-01-15T03:18:01;24.92;;;11.25;;
59846;SDS011;45728;48.788;2.302;2024-01-15T03:20:27;28.92;;;11.65;;
59846;SDS011;45728;48.788;2.302;2024-01-15T03:22:53;23.10;;;9.48;;
59846;SDS011;45728;48.788;2.302;2024-01-15T03:25:19;22.08;;;10.30;;
59846;SDS011;45728;48.788;2.302;2024-01-15T03:27:45;27.50;;;10.57;;
59846;SDS011;45728;48.788;2.302;2024-01-15T03:30:11;24.90;;;11.73;;
59846;SDS011;45728;48.788;2.302;2024-01-15T03:32:37;25.98;;;11.15;;
59846;SDS011;45728;48.788;2.302;2024-01-15T03:35:04;26.00;;;11.07;;
59846;SDS011;45728;48.788;2.302;2024-01-15T03:37:30;24.83;;;10.60;;
59846;SDS011;45728;48.788;2.302;2024-01-15T03:39:56;23.88;;;10.15;;
59846;SDS011;45728;48.788;2.302;2024-01-15T03:42:22;29.92;;;11.95;;
59846;SDS011;45728;48.788;2.302;2024-01-15T03:44:48;25.67;;;11.23;;
59846;SDS011;45728;48.788;2.302;2024-01-15T03:47:14;30.17;;;10.57;;
59846;SDS011;45728;48.788;2.302;2024-01-15T03:49:40;25.40;;;10.98;;
59846;SDS011;45728;48.788;2.302;2024-01-15T03:52:06;26.60;;;10.52;;
59846;SDS011;45728;48.788;2.302;2024-01-15T03:54:32;24.75;;;10.48;;
59846;SDS011;45728;48.788;2.302;2024-01-15T03:56:58;25.23;;;10.27;;
59846;SDS011;45728;48.788;2.302;2024-01-15T03:59:24;28.08;;;11.20;;
59846;SDS011;45728;48.788;2.302;2024-01-15T04:01:51;23.08;;;9.25;;
59846;SDS011;45728;48.788;2.302;2024-01-15T04:04:17;20.27;;;9.10;;
59846;SDS011;45728;48.788;2.302;2024-01-15T04:06:43;22.45;;;10.65;;
59846;SDS011;45728;48.788;2.302;2024-01-15T04:09:11;23.92;;;9.88;;
59846;SDS011;45728;48.788;2.302;2024-01-15T04:11:38;23.38;;;9.43;;
59846;SDS011;45728;48.788;2.302;2024-01-15T04:14:04;25.33;;;10.25;;
59846;SDS011;45728;48.788;2.302;2024-01-15T04:16:30;21.88;;;9.63;;
59846;SDS011;45728;48.788;2.302;2024-01-15T04:18:56;29.00;;;10.35;;
59846;SDS011;45728;48.788;2.302;2024-01-15T04:21:22;21.17;;;9.13;;
59846;SDS011;45728;48.788;2.302;2024-01-15T04:23:48;24.73;;;9.95;;
59846;SDS011;45728;48.788;2.302;2024-01-15T04:26:14;21.23;;;9.52;;
59846;SDS011;45728;48.788;2.302;2024-01-15T04:28:40;25.30;;;10.23;;
59846;SDS011;45728;48.788;2.302;2024-01-15T04:31:06;23.58;;;9.95;;
59846;SDS011;45728;48.788;2.302;2024-01-15T04:33:32;22.40;;;9.60;;
59846;SDS011;45728;48.788;2.302;2024-01-15T04:36:01;23.45;;;10.00;;
59846;SDS011;45728;48.788;2.302;2024-01-15T04:38:28;24.80;;;11.35;;
59846;SDS011;45728;48.788;2.302;2024-01-15T04:40:54;22.63;;;9.43;;
59846;SDS011;45728;48.788;2.302;2024-01-15T04:43:20;22.65;;;10.18;;
59846;SDS011;45728;48.788;2.302;2024-01-15T04:45:47;23.20;;;10.07;;
59846;SDS011;45728;48.788;2.302;2024-01-15T04:48:13;22.52;;;9.82;;
59846;SDS011;45728;48.788;2.302;2024-01-15T04:50:39;23.60;;;9.95;;
59846;SDS011;45728;48.788;2.302;2024-01-15T04:53:05;22.08;;;10.02;;
59846;SDS011;45728;48.788;2.302;2024-01-15T04:55:31;24.55;;;10.60;;
59846;SDS011;45728;48.788;2.302;2024-01-15T04:57:57;24.70;;;10.10;;
59846;SDS011;45728;48.788;2.302;2024-01-15T05:00:23;24.40;;;10.90;;
59846;SDS011;45728;48.788;2.302;2024-01-15T05:02:49;25.50;;;10.35;;
59846;SDS011;45728;48.788;2.302;2024-01-15T05:05:15;24.88;;;9.90;;
59846;SDS011;45728;48.788;2.302;2024-01-15T05:07:41;22.17;;;9.85;;
59846;SDS011;45728;48.788;2.302;2024-01-15T05:10:07;25.23;;;10.70;;
59846;SDS011;45728;48.788;2.302;2024-01-15T05:12:33;25.30;;;10.43;;
59846;SDS011;45728;48.788;2.302;2024-01-15T05:14:59;23.40;;;10.57;;
59846;SDS011;45728;48.788;2.302;2024-01-15T05:17:25;24.58;;;10.88;;
59846;SDS011;45728;48.788;2.302;2024-01-15T05:19:51;24.60;;;10.85;;
59846;SDS011;45728;48.788;2.302;2024-01-15T05:22:17;23.55;;;9.02;;
59846;SDS011;45728;48.788;2.302;2024-01-15T05:24:43;23.33;;;10.38;;
59846;SDS011;45728;48.788;2.302;2024-01-15T05:27:09;22.88;;;9.70;;
59846;SDS011;45728;48.788;2.302;2024-01-15T05:29:35;22.17;;;8.93;;
59846;SDS011;45728;48.788;2.302;2024-01-15T05:32:01;22.23;;;9.70;;
59846;SDS011;45728;48.788;2.302;2024-01-15T05:34:27;21.83;;;9.25;;
59846;SDS011;45728;48.788;2.302;2024-01-15T05:36:54;18.45;;;8.93;;
59846;SDS011;45728;48.788;2.302;2024-01-15T05:39:20;22.98;;;9.05;;
59846;SDS011;45728;48.788;2.302;2024-01-15T05:41:46;22.90;;;9.23;;
59846;SDS011;45728;48.788;2.302;2024-01-15T05:44:12;20.25;;;8.48;;
59846;SDS011;45728;48.788;2.302;2024-01-15T05:46:38;17.40;;;7.22;;
59846;SDS011;45728;48.788;2.302;2024-01-15T05:49:04;13.70;;;5.78;;
59846;SDS011;45728;48.788;2.302;2024-01-15T05:51:30;15.82;;;6.13;;
59846;SDS011;45728;48.788;2.302;2024-01-15T05:53:56;12.32;;;5.22;;
59846;SDS011;45728;48.788;2.302;2024-01-15T05:56:22;11.57;;;5.88;;
59846;SDS011;45728;48.788;2.302;2024-01-15T05:58:49;12.15;;;4.97;;
59846;SDS011;45728;48.788;2.302;2024-01-15T06:01:15;13.18;;;5.65;;
59846;SDS011;45728;48.788;2.302;2024-01-15T06:03:41;12.48;;;5.32;;
59846;SDS011;45728;48.788;2.302;2024-01-15T06:06:08;12.90;;;6.18;;
59846;SDS011;45728;48.788;2.302;2024-01-15T06:08:34;12.20;;;5.18;;
59846;SDS011;45728;48.788;2.302;2024-01-15T06:11:00;15.90;;;7.22;;
59846;SDS011;45728;48.788;2.302;2024-01-15T06:13:26;11.13;;;5.68;;
59846;SDS011;45728;48.788;2.302;2024-01-15T06:15:52;14.20;;;4.88;;
59846;SDS011;45728;48.788;2.302;2024-01-15T06:18:18;15.93;;;6.43;;
59846;SDS011;45728;48.788;2.302;2024-01-15T06:20:44;16.33;;;6.32;;
59846;SDS011;45728;48.788;2.302;2024-01-15T06:23:10;17.10;;;7.18;;
59846;SDS011;45728;48.788;2.302;2024-01-15T06:25:37;14.18;;;6.35;;
59846;SDS011;45728;48.788;2.302;2024-01-15T06:28:03;15.05;;;6.40;;
59846;SDS011;45728;48.788;2.302;2024-01-15T06:30:30;15.93;;;8.13;;
59846;SDS011;45728;48.788;2.302;2024-01-15T06:32:57;18.92;;;8.00;;
59846;SDS011;45728;48.788;2.302;2024-01-15T06:35:23;20.05;;;8.05;;
59846;SDS011;45728;48.788;2.302;2024-01-15T06:37:49;20.33;;;8.82;;
59846;SDS011;45728;48.788;2.302;2024-01-15T06:40:15;21.65;;;8.68;;
59846;SDS011;45728;48.788;2.302;2024-01-15T06:42:41;19.13;;;8.43;;
59846;SDS011;45728;48.788;2.302;2024-01-15T06:45:07;23.10;;;8.93;;
59846;SDS011;45728;48.788;2.302;2024-01-15T06:47:33;21.23;;;9.00;;
59846;SDS011;45728;48.788;2.302;2024-01-15T06:49:59;18.98;;;8.13;;
59846;SDS011;45728;48.788;2.302;2024-01-15T06:52:25;17.63;;;8.07;;
59846;SDS011;45728;48.788;2.302;2024-01-15T06:54:51;18.10;;;7.82;;
59846;SDS011;45728;48.788;2.302;2024-01-15T06:57:17;17.85;;;8.18;;
59846;SDS011;45728;48.788;2.302;2024-01-15T06:59:45;18.95;;;7.93;;
59846;SDS011;45728;48.788;2.302;2024-01-15T07:02:11;17.50;;;7.53;;
59846;SDS011;45728;48.788;2.302;2024-01-15T07:04:37;20.00;;;8.60;;
59846;SDS011;45728;48.788;2.302;2024-01-15T07:07:04;18.08;;;8.32;;
59846;SDS011;45728;48.788;2.302;2024-01-15T07:09:30;20.35;;;8.23;;
59846;SDS011;45728;48.788;2.302;2024-01-15T07:11:56;18.77;;;7.30;;
59846;SDS011;45728;48.788;2.302;2024-01-15T07:14:23;19.13;;;8.65;;
59846;SDS011;45728;48.788;2.302;2024-01-15T07:16:49;20.70;;;8.77;;
59846;SDS011;45728;48.788;2.302;2024-01-15T07:19:15;19.88;;;8.50;;
59846;SDS011;45728;48.788;2.302;2024-01-15T07:21:42;20.20;;;9.68;;
59846;SDS011;45728;48.788;2.302;2024-01-15T07:24:08;22.00;;;9.32;;
59846;SDS011;45728;48.788;2.302;2024-01-15T07:26:35;20.92;;;8.50;;
59846;SDS011;45728;48.788;2.302;2024-01-15T07:29:02;18.80;;;8.05;;
59846;SDS011;45728;48.788;2.302;2024-01-15T07:31:28;24.30;;;8.85;;
59846;SDS011;45728;48.788;2.302;2024-01-15T07:33:54;26.58;;;9.90;;
59846;SDS011;45728;48.788;2.302;2024-01-15T07:36:21;23.17;;;9.55;;
59846;SDS011;45728;48.788;2.302;2024-01-15T07:38:47;21.75;;;8.90;;
59846;SDS011;45728;48.788;2.302;2024-01-15T07:41:13;21.63;;;9.02;;
59846;SDS011;45728;48.788;2.302;2024-01-15T07:43:39;29.35;;;9.77;;
59846;SDS011;45728;48.788;2.302;2024-01-15T07:46:05;22.38;;;10.05;;
59846;SDS011;45728;48.788;2.302;2024-01-15T07:48:32;21.48;;;9.68;;
59846;SDS011;45728;48.788;2.302;2024-01-15T07:50:58;23.15;;;9.43;;
59846;SDS011;45728;48.788;2.302;2024-01-15T07:53:24;24.20;;;8.90;;
59846;SDS011;45728;48.788;2.302;2024-01-15T07:55:50;24.05;;;9.23;;
59846;SDS011;45728;48.788;2.302;2024-01-15T07:58:16;21.40;;;9.13;;
59846;SDS011;45728;48.788;2.302;2024-01-15T08:00:43;21.65;;;9.13;;
59846;SDS011;45728;48.788;2.302;2024-01-15T08:03:10;26.35;;;10.60;;
59846;SDS011;45728;48.788;2.302;2024-01-15T08:05:36;19.10;;;8.77;;
59846;SDS011;45728;48.788;2.302;2024-01-15T08:08:03;21.83;;;9.45;;
59846;SDS011;45728;48.788;2.302;2024-01-15T08:10:29;23.38;;;10.15;;
59846;SDS011;45728;48.788;2.302;2024-01-15T08:12:55;22.63;;;9.77;;
59846;SDS011;45728;48.788;2.302;2024-01-15T08:15:21;21.90;;;9.30;;
59846;SDS011;45728;48.788;2.302;2024-01-15T08:17:47;25.45;;;10.48;;
59846;SDS011;45728;48.788;2.302;2024-01-15T08:20:13;22.67;;;8.80;;
59846;SDS011;45728;48.788;2.302;2024-01-15T08:22:41;20.90;;;9.50;;
59846;SDS011;45728;48.788;2.302;2024-01-15T08:25:07;22.67;;;10.07;;
59846;SDS011;45728;48.788;2.302;2024-01-15T08:27:34;23.55;;;10.35;;
59846;SDS011;45728;48.788;2.302;2024-01-15T08:30:00;22.95;;;10.20;;
59846;SDS011;45728;48.788;2.302;2024-01-15T08:32:26;22.40;;;10.05;;
59846;SDS011;45728;48.788;2.302;2024-01-15T08:34:52;24.30;;;9.60;;
59846;SDS011;45728;48.788;2.302;2024-01-15T08:37:18;22.67;;;8.82;;
59846;SDS011;45728;48.788;2.302;2024-01-15T08:39:45;22.83;;;9.18;;
59846;SDS011;45728;48.788;2.302;2024-01-15T08:42:11;22.55;;;9.85;;
59846;SDS011;45728;48.788;2.302;2024-01-15T08:44:37;21.85;;;9.60;;
59846;SDS011;45728;48.788;2.302;2024-01-15T08:47:06;18.23;;;8.98;;
59846;SDS011;45728;48.788;2.302;2024-01-15T08:49:32;21.83;;;9.10;;
59846;SDS011;45728;48.788;2.302;2024-01-15T08:51:58;23.20;;;9.25;;
59846;SDS011;45728;48.788;2.302;2024-01-15T08:54:24;18.90;;;8.32;;
59846;SDS011;45728;48.788;2.302;2024-01-15T08:56:50;26.83;;;9.55;;
59846;SDS011;45728;48.788;2.302;2024-01-15T08:59:16;17.63;;;8.23;;
59846;SDS011;45728;48.788;2.302;2024-01-15T09:01:50;17.83;;;8.35;;
59846;SDS011;45728;48.788;2.302;2024-01-15T09:04:16;20.73;;;8.60;;
59846;SDS011;45728;48.788;2.302;2024-01-15T09:06:44;18.45;;;7.78;;
59846;SDS011;45728;48.788;2.302;2024-01-15T09:09:14;16.95;;;8.95;;
59846;SDS011;45728;48.788;2.302;2024-01-15T09:11:40;22.80;;;8.43;;
59846;SDS011;45728;48.788;2.302;2024-01-15T09:14:06;24.38;;;9.40;;
59846;SDS011;45728;48.788;2.302;2024-01-15T09:16:33;22.33;;;16.20;;
59846;SDS011;45728;48.788;2.302;2024-01-15T09:19:00;22.13;;;9.48;;
59846;SDS011;45728;48.788;2.302;2024-01-15T09:21:26;23.05;;;8.68;;
59846;SDS011;45728;48.788;2.302;2024-01-15T09:23:52;17.63;;;7.50;;
59846;SDS011;45728;48.788;2.302;2024-01-15T09:26:18;19.35;;;7.85;;
59846;SDS011;45728;48.788;2.302;2024-01-15T09:28:44;22.30;;;8.55;;
59846;SDS011;45728;48.788;2.302;2024-01-15T09:31:10;18.20;;;7.63;;
59846;SDS011;45728;48.788;2.302;2024-01-15T09:33:37;15.38;;;6.70;;
59846;SDS011;45728;48.788;2.302;2024-01-15T09:36:03;21.15;;;8.13;;
59846;SDS011;45728;48.788;2.302;2024-01-15T09:38:30;17.70;;;7.35;;
59846;SDS011;45728;48.788;2.302;2024-01-15T09:40:57;16.13;;;6.95;;
59846;SDS011;45728;48.788;2.302;2024-01-15T09:43:24;13.95;;;6.93;;
59846;SDS011;45728;48.788;2.302;2024-01-15T09:45:50;14.23;;;7.38;;
59846;SDS011;45728;48.788;2.302;2024-01-15T09:48:18;13.27;;;6.10;;
59846;SDS011;45728;48.788;2.302;2024-01-15T09:50:46;17.35;;;10.05;;
59846;SDS011;45728;48.788;2.302;2024-01-15T09:53:13;15.68;;;6.00;;
59846;SDS011;45728;48.788;2.302;2024-01-15T09:55:40;16.02;;;6.85;;
59846;SDS011;45728;48.788;2.302;2024-01-15T09:58:06;14.38;;;6.30;;
59846;SDS011;45728;48.788;2.302;2024-01-15T10:00:33;13.35;;;6.40;;
59846;SDS011;45728;48.788;2.302;2024-01-15T10:03:04;15.30;;;10.18;;
59846;SDS011;45728;48.788;2.302;2024-01-15T10:05:32;17.38;;;9.75;;
59846;SDS011;45728;48.788;2.302;2024-01-15T10:07:58;14.75;;;9.55;;
59846;SDS011;45728;48.788;2.302;2024-01-15T10:10:26;13.00;;;9.02;;
59846;SDS011;45728;48.788;2.302;2024-01-15T10:12:52;9.93;;;7.25;;
59846;SDS011;45728;48.788;2.302;2024-01-15T10:15:23;11.18;;;5.18;;
59846;SDS011;45728;48.788;2.302;2024-01-15T10:17:50;13.30;;;9.30;;
59846;SDS011;45728;48.788;2.302;2024-01-15T10:20:16;13.88;;;9.18;;
59846;SDS011;45728;48.788;2.302;2024-01-15T10:22:42;12.00;;;8.35;;
59846;SDS011;45728;48.788;2.302;2024-01-15T10:25:12;13.38;;;8.23;;
59846;SDS011;45728;48.788;2.302;2024-01-15T10:27:40;8.68;;;5.18;;
59846;SDS011;45728;48.788;2.302;2024-01-15T10:30:10;10.65;;;7.60;;
59846;SDS011;45728;48.788;2.302;2024-01-15T10:32:37;9.13;;;6.43;;
59846;SDS011;45728;48.788;2.302;2024-01-15T10:35:03;8.63;;;6.32;;
59846;SDS011;45728;48.788;2.302;2024-01-15T10:37:32;9.40;;;6.05;;
59846;SDS011;45728;48.788;2.302;2024-01-15T10:40:01;8.48;;;6.13;;
59846;SDS011;45728;48.788;2.302;2024-01-15T10:42:30;10.52;;;5.05;;
59846;SDS011;45728;48.788;2.302;2024-01-15T10:44:56;10.18;;;5.70;;
59846;SDS011;45728;48.788;2.302;2024-01-15T10:47:22;11.75;;;3.30;;
59846;SDS011;45728;48.788;2.302;2024-01-15T10:49:48;7.93;;;4.45;;
59846;SDS011;45728;48.788;2.302;2024-01-15T10:52:15;10.80;;;3.65;;
59846;SDS011;45728;48.788;2.302;2024-01-15T10:54:41;7.22;;;4.40;;
59846;SDS011;45728;48.788;2.302;2024-01-15T10:57:09;7.88;;;3.92;;
59846;SDS011;45728;48.788;2.302;2024-01-15T10:59:36;3.53;;;1.88;;
59846;SDS011;45728;48.788;2.302;2024-01-15T11:02:02;6.07;;;3.47;;
59846;SDS011;45728;48.788;2.302;2024-01-15T11:04:31;6.57;;;3.60;;
59846;SDS011;45728;48.788;2.302;2024-01-15T11:06:57;6.47;;;3.50;;
59846;SDS011;45728;48.788;2.302;2024-01-15T11:09:23;7.05;;;2.30;;
59846;SDS011;45728;48.788;2.302;2024-01-15T11:11:51;5.78;;;3.15;;
59846;SDS011;45728;48.788;2.302;2024-01-15T11:17:10;4.28;;;1.85;;
59846;SDS011;45728;48.788;2.302;2024-01-15T11:19:46;5.03;;;3.05;;
59846;SDS011;45728;48.788;2.302;2024-01-15T11:24:57;4.68;;;2.78;;
59846;SDS011;45728;48.788;2.302;2024-01-15T11:27:44;7.43;;;2.20;;
59846;SDS011;45728;48.788;2.302;2024-01-15T11:30:18;4.20;;;1.77;;
59846;SDS011;45728;48.788;2.302;2024-01-15T11:32:47;5.75;;;3.20;;
59846;SDS011;45728;48.788;2.302;2024-01-15T11:35:14;3.95;;;1.45;;
59846;SDS011;45728;48.788;2.302;2024-01-15T11:40:20;4.22;;;1.75;;
59846;SDS011;45728;48.788;2.302;2024-01-15T11:42:48;2.38;;;1.30;;
59846;SDS011;45728;48.788;2.302;2024-01-15T11:45:20;1.95;;;1.13;;
59846;SDS011;45728;48.788;2.302;2024-01-15T11:50:32;4.95;;;2.40;;
59846;SDS011;45728;48.788;2.302;2024-01-15T11:53:03;5.38;;;2.13;;
59846;SDS011;45728;48.788;2.302;2024-01-15T11:55:34;3.28;;;1.50;;
59846;SDS011;45728;48.788;2.302;2024-01-15T11:58:07;5.65;;;2.08;;
59846;SDS011;45728;48.788;2.302;2024-01-15T12:00:38;2.17;;;1.13;;
59846;SDS011;45728;48.788;2.302;2024-01-15T12:03:13;3.90;;;1.73;;
59846;SDS011;45728;48.788;2.302;2024-01-15T12:05:39;1.95;;;0.68;;
59846;SDS011;45728;48.788;2.302;2024-01-15T12:08:07;8.98;;;2.08;;
59846;SDS011;45728;48.788;2.302;2024-01-15T12:10:36;1.67;;;0.80;;
59846;SDS011;45728;48.788;2.302;2024-01-15T12:13:13;2.80;;;1.10;;
59846;SDS011;45728;48.788;2.302;2024-01-15T12:15:43;3.47;;;1.80;;
59846;SDS011;45728;48.788;2.302;2024-01-15T12:18:11;2.45;;;1.50;;
59846;SDS011;45728;48.788;2.302;2024-01-15T12:20:40;2.28;;;1.00;;
59846;SDS011;45728;48.788;2.302;2024-01-15T12:23:07;3.72;;;1.00;;
59846;SDS011;45728;48.788;2.302;2024-01-15T12:25:34;3.65;;;1.27;;
59846;SDS011;45728;48.788;2.302;2024-01-15T12:28:00;3.88;;;1.70;;
59846;SDS011;45728;48.788;2.302;2024-01-15T12:30:27;4.93;;;1.85;;
59846;SDS011;45728;48.788;2.302;2024-01-15T12:32:54;2.97;;;0.70;;
59846;SDS011;45728;48.788;2.302;2024-01-15T12:35:21;4.47;;;1.70;;
59846;SDS011;45728;48.788;2.302;2024-01-15T12:37:47;3.30;;;0.90;;
59846;SDS011;45728;48.788;2.302;2024-01-15T12:40:13;3.67;;;1.67;;
59846;SDS011;45728;48.788;2.302;2024-01-15T12:42:44;4.45;;;1.55;;
59846;SDS011;45728;48.788;2.302;2024-01-15T12:45:11;3.92;;;1.70;;
59846;SDS011;45728;48.788;2.302;2024-01-15T12:47:38;46.17;;;36.83;;
59846;SDS011;45728;48.788;2.302;2024-01-15T12:50:06;1.48;;;0.70;;
59846;SDS011;45728;48.788;2.302;2024-01-15T12:52:36;6.18;;;1.95;;
59846;SDS011;45728;48.788;2.302;2024-01-15T12:55:06;3.47;;;1.50;;
59846;SDS011;45728;48.788;2.302;2024-01-15T12:57:36;2.50;;;1.50;;
59846;SDS011;45728;48.788;2.302;2024-01-15T13:00:06;3.53;;;1.52;;
59846;SDS011;45728;48.788;2.302;2024-01-15T13:02:36;3.85;;;1.55;;
59846;SDS011;45728;48.788;2.302;2024-01-15T13:05:05;1.90;;;1.30;;
59846;SDS011;45728;48.788;2.302;2024-01-15T13:07:33;2.25;;;0.93;;
59846;SDS011;45728;48.788;2.302;2024-01-15T13:09:59;2.45;;;1.40;;
59846;SDS011;45728;48.788;2.302;2024-01-15T13:12:25;5.32;;;1.60;;
59846;SDS011;45728;48.788;2.302;2024-01-15T13:14:52;4.30;;;1.42;;
59846;SDS011;45728;48.788;2.302;2024-01-15T13:17:18;1.45;;;0.70;;
59846;SDS011;45728;48.788;2.302;2024-01-15T13:19:46;3.55;;;1.30;;
59846;SDS011;45728;48.788;2.302;2024-01-15T13:22:12;1.02;;;0.50;;
59846;SDS011;45728;48.788;2.302;2024-01-15T13:24:39;4.53;;;1.55;;
59846;SDS011;45728;48.788;2.302;2024-01-15T13:27:05;5.47;;;1.73;;
59846;SDS011;45728;48.788;2.302;2024-01-15T13:29:32;3.20;;;1.08;;
59846;SDS011;45728;48.788;2.302;2024-01-15T13:31:59;3.33;;;1.60;;
59846;SDS011;45728;48.788;2.302;2024-01-15T13:34:25;5.05;;;1.02;;
59846;SDS011;45728;48.788;2.302;2024-01-15T13:36:51;2.92;;;1.38;;
59846;SDS011;45728;48.788;2.302;2024-01-15T13:39:19;3.65;;;1.58;;
59846;SDS011;45728;48.788;2.302;2024-01-15T13:41:49;3.58;;;1.40;;
59846;SDS011;45728;48.788;2.302;2024-01-15T13:44:15;3.97;;;0.90;;
59846;SDS011;45728;48.788;2.302;2024-01-15T13:46:41;4.15;;;1.40;;
59846;SDS011;45728;48.788;2.302;2024-01-15T13:49:07;4.32;;;1.35;;
59846;SDS011;45728;48.788;2.302;2024-01-15T13:51:35;4.68;;;1.73;;
59846;SDS011;45728;48.788;2.302;2024-01-15T13:54:02;4.13;;;1.42;;
59846;SDS011;45728;48.788;2.302;2024-01-15T13:56:30;2.92;;;1.40;;
59846;SDS011;45728;48.788;2.302;2024-01-15T13:58:58;4.57;;;1.73;;
59846;SDS011;45728;48.788;2.302;2024-01-15T14:01:25;3.08;;;1.45;;
59846;SDS011;45728;48.788;2.302;2024-01-15T14:03:53;3.20;;;1.70;;
59846;SDS011;45728;48.788;2.302;2024-01-15T14:06:19;5.30;;;1.85;;
59846;SDS011;45728;48.788;2.302;2024-01-15T14:08:45;7.47;;;1.75;;
59846;SDS011;45728;48.788;2.302;2024-01-15T14:11:11;6.13;;;1.77;;
59846;SDS011;45728;48.788;2.302;2024-01-15T14:13:38;5.22;;;1.70;;
59846;SDS011;45728;48.788;2.302;2024-01-15T14:16:04;3.65;;;1.40;;
59846;SDS011;45728;48.788;2.302;2024-01-15T14:18:30;3.75;;;1.52;;
59846;SDS011;45728;48.788;2.302;2024-01-15T14:20:57;5.38;;;1.50;;
59846;SDS011;45728;48.788;2.302;2024-01-15T14:23:23;6.25;;;1.88;;
59846;SDS011;45728;48.788;2.302;2024-01-15T14:25:49;2.47;;;0.75;;
59846;SDS011;45728;48.788;2.302;2024-01-15T14:28:15;2.65;;;1.13;;
59846;SDS011;45728;48.788;2.302;2024-01-15T14:30:42;5.03;;;1.30;;
59846;SDS011;45728;48.788;2.302;2024-01-15T14:33:08;5.13;;;1.20;;
59846;SDS011;45728;48.788;2.302;2024-01-15T14:35:34;4.00;;;1.08;;
59846;SDS011;45728;48.788;2.302;2024-01-15T14:38:00;3.20;;;1.65;;
59846;SDS011;45728;48.788;2.302;2024-01-15T14:40:26;3.42;;;0.70;;